Time;durP1;ratioP1;P1;durP2;ratioP2;P2;SDS_P1;SDS_P2;PMS_P1;PMS_P2;Temp;Humidity;BMP_temperature;BMP_pressure;BME280_temperature;BME280_humidity;BME280_pressure;Samples;Min_cycle;Max_cycle;Signal;HPM_P1;HPM_P2
2021/12/25 00:00:14;;;;;;;40.88;20.33;;;;;;;1.34;nan;94945.31;6101762;23;20096;-80
2021/12/25 00:02:40;;;;;;;46.45;20.52;;;;;;;0.91;nan;94942.84;6125411;23;20006;-80
2021/12/25 00:05:07;;;;;;;55.28;23.45;;;;;;;1.15;nan;94947.16;6127846;23;20425;-79
2021/12/25 00:07:33;;;;;;;52.65;24.08;;;;;;;0.83;nan;94909.22;6126281;23;20470;-79
2021/12/25 00:10:00;;;;;;;50.83;22.58;;;;;;;0.52;nan;94855.38;6126899;23;20066;-79
2021/12/25 00:12:26;;;;;;;53.65;24.23;;;;;;;0.82;nan;94933.72;6125327;23;20432;-80
2021/12/25 00:14:51;;;;;;;54.28;23.00;;;;;;;0.47;nan;94857.03;6127355;23;20430;-80
2021/12/25 00:17:17;;;;;;;51.92;24.33;;;;;;;1.49;nan;94981.50;6124716;23;20084;-80
2021/12/25 00:19:43;;;;;;;50.78;21.50;;;;;;;1.46;nan;94981.94;6124577;23;20010;-79
2021/12/25 00:22:09;;;;;;;46.72;21.52;;;;;;;1.31;nan;94973.69;6099687;23;20054;-80
2021/12/25 00:24:35;;;;;;;51.38;20.33;;;;;;;1.31;nan;94977.09;6126589;23;20028;-79
2021/12/25 00:27:09;;;;;;;47.38;21.77;;;;;;;1.26;nan;94960.50;6099910;23;20034;-80
2021/12/25 00:34:49;;;;;;;42.00;20.10;;;;;;;1.06;nan;94908.53;6125918;23;20116;-80
2021/12/25 00:37:15;;;;;;;44.30;19.00;;;;;;;1.88;nan;95012.31;6099431;23;20440;-80
2021/12/25 00:39:43;;;;;;;44.03;18.75;;;;;;;1.14;nan;94869.81;6124983;23;20018;-79
2021/12/25 00:42:10;;;;;;;38.03;18.88;;;;;;;1.09;nan;94898.41;6127299;23;20010;-79
2021/12/25 00:44:37;;;;;;;40.28;17.02;;;;;;;-0.25;nan;94716.03;6101638;23;20013;-80
2021/12/25 00:47:04;;;;;;;41.13;18.52;;;;;;;1.77;nan;94992.16;6100929;23;20073;-79
2021/12/25 00:49:30;;;;;;;43.90;17.38;;;;;;;1.68;nan;94998.72;6125084;23;20006;-80
2021/12/25 00:51:56;;;;;;;40.58;17.23;;;;;;;0.90;nan;94875.97;6125850;23;20065;-79
2021/12/25 00:54:22;;;;;;;37.28;15.90;;;;;;;-2.89;nan;94293.91;6126864;23;20093;-79
2021/12/25 00:56:47;;;;;;;31.65;16.23;;;;;;;1.13;nan;94885.72;6099862;23;20299;-79
2021/12/25 00:59:13;;;;;;;38.60;16.52;;;;;;;1.66;nan;94972.00;6077457;23;20036;-79
2021/12/25 01:01:39;;;;;;;34.38;16.10;;;;;;;0.59;nan;94790.84;6127597;23;20016;-81
2021/12/25 01:04:05;;;;;;;38.35;16.40;;;;;;;1.88;nan;94983.56;6126849;23;20013;-82
2021/12/25 01:06:30;;;;;;;31.75;14.90;;;;;;;1.00;nan;94868.41;6127433;23;20460;-81
2021/12/25 01:08:57;;;;;;;33.17;15.25;;;;;;;1.40;100.00;62207.84;6128121;23;20080;-81
2021/12/25 01:11:28;;;;;;;32.65;14.98;;;;;;;1.60;nan;94930.28;6127742;23;20001;-81
2021/12/25 01:14:02;;;;;;;;;;;;;;;1.88;nan;94990.59;6128137;23;20014;-81
2021/12/25 01:37:40;;;;;;;31.77;13.90;;;;;;;1.51;nan;94901.84;6128158;23;20064;-82
2021/12/25 01:48:21;;;;;;;30.67;14.23;;;;;;;0.67;nan;94855.00;6128254;23;20405;-81
2021/12/25 01:50:47;;;;;;;34.55;13.95;;;;;;;1.45;nan;94938.53;6101000;23;20073;-82
2021/12/25 01:53:13;;;;;;;29.55;14.63;;;;;;;1.30;nan;94930.31;6127569;23;20016;-82
2021/12/25 01:55:39;;;;;;;27.85;14.52;;;;;;;0.64;nan;94832.72;6125560;23;20013;-82
2021/12/25 01:58:05;;;;;;;30.63;15.52;;;;;;;1.02;nan;94931.66;6101400;23;20013;-82
2021/12/25 02:00:45;;;;;;;29.60;13.88;;;;;;;1.09;nan;94918.50;6127661;23;20094;-82
2021/12/25 02:03:13;;;;;;;25.70;13.93;;;;;;;0.52;nan;94813.63;6101770;23;20020;-82
2021/12/25 02:05:39;;;;;;;28.55;13.77;;;;;;;0.47;nan;94852.59;6125849;23;20010;-82
2021/12/25 02:08:05;;;;;;;40.50;17.10;;;;;;;1.01;nan;94929.25;6125471;23;20017;-82
2021/12/25 02:10:31;;;;;;;41.55;17.20;;;;;;;0.72;nan;94868.16;6126860;23;20009;-82
2021/12/25 02:12:56;;;;;;;32.63;15.30;;;;;;;0.94;nan;94915.50;6126878;23;20009;-82
2021/12/25 02:15:25;;;;;;;35.42;15.50;;;;;;;0.64;nan;94853.59;6100872;23;20002;-82
2021/12/25 02:20:27;;;;;;;30.38;15.07;;;;;;;0.62;nan;94873.91;6127863;23;20006;-82
2021/12/25 02:22:59;;;;;;;33.25;12.82;;;;;;;0.03;nan;94790.31;6125771;23;20018;-82
2021/12/25 02:25:26;;;;;;;28.85;13.70;;;;;;;0.75;nan;94886.81;6127371;23;20009;-82
2021/12/25 02:27:51;;;;;;;33.70;14.05;;;;;;;0.78;nan;94891.56;6128643;23;20010;-82
2021/12/25 02:30:17;;;;;;;32.65;14.77;;;;;;;0.48;nan;94835.13;6102095;23;20124;-81
2021/12/25 02:32:45;;;;;;;23.90;12.75;;;;;;;1.28;nan;94937.56;6127955;23;20088;-82
2021/12/25 02:35:11;;;;;;;28.13;13.32;;;;;;;1.53;nan;94959.91;6126903;23;20010;-82
2021/12/25 02:37:37;;;;;;;29.55;15.02;;;;;;;1.27;nan;94921.09;6128863;23;20006;-83
2021/12/25 02:40:03;;;;;;;28.77;14.40;;;;;;;1.65;nan;94944.28;6129335;23;20006;-82
2021/12/25 02:42:28;;;;;;;33.28;14.52;;;;;;;0.99;nan;94850.38;6129409;23;20038;-81
2021/12/25 02:44:54;;;;;;;26.08;12.32;;;;;;;0.48;nan;94764.69;6129406;23;20010;-81
2021/12/25 02:47:21;;;;;;;30.55;13.30;;;;;;;1.21;nan;94906.31;6103668;23;20013;-81
2021/12/25 02:49:51;;;;;;;27.33;13.23;;;;;;;1.57;nan;94949.81;6128082;23;20061;-81
2021/12/25 02:52:17;;;;;;;27.88;12.60;;;;;;;1.33;nan;94894.06;6102678;23;20014;-82
2021/12/25 02:54:44;;;;;;;23.60;12.90;;;;;;;1.58;nan;94914.81;6101617;23;20574;-82
2021/12/25 02:57:13;;;;;;;27.70;12.82;;;;;;;1.87;nan;94957.63;6127161;23;20014;-82
2021/12/25 02:59:39;;;;;;;31.58;13.35;;;;;;;1.58;nan;94968.91;6124937;23;20422;-80
2021/12/25 03:02:16;;;;;;;26.95;13.10;;;;;;;1.36;nan;94890.22;6124050;23;20128;-80
2021/12/25 03:04:48;;;;;;;27.35;12.45;;;;;;;1.46;nan;94925.22;6100530;23;20006;-80
2021/12/25 03:07:14;;;;;;;29.83;12.50;;;;;;;1.78;nan;94954.53;6100522;23;20349;-79
2021/12/25 03:09:41;;;;;;;30.48;12.75;;;;;;;1.81;nan;94946.25;6126293;23;20005;-79
2021/12/25 03:12:11;;;;;;;29.48;14.10;;;;;;;1.75;nan;94957.63;6124288;23;20009;-79
2021/12/25 03:15:01;;;;;;;28.27;12.85;;;;;;;0.68;nan;94779.09;6124060;23;20033;-80
2021/12/25 03:17:26;;;;;;;25.83;12.48;;;;;;;0.99;nan;94829.47;6125338;23;20085;-79
2021/12/25 03:19:54;;;;;;;26.05;12.65;;;;;;;1.42;nan;94936.38;6098901;23;20125;-80
2021/12/25 03:22:19;;;;;;;30.85;13.68;;;;;;;1.80;nan;94947.28;6123121;23;20101;-79
2021/12/25 03:24:45;;;;;;;22.45;12.35;;;;;;;1.85;nan;94955.22;6123665;23;20074;-80
2021/12/25 03:27:10;;;;;;;28.30;13.93;;;;;;;1.22;nan;94905.25;6099559;23;19998;-80
2021/12/25 03:29:39;;;;;;;29.40;14.07;;;;;;;1.10;nan;94894.00;6099479;23;20006;-79
2021/12/25 03:32:06;;;;;;;27.83;14.73;;;;;;;1.38;nan;94943.03;6123917;23;20013;-79
2021/12/25 03:34:31;;;;;;;35.00;15.30;;;;;;;1.33;nan;94912.38;6099170;23;20114;-80
2021/12/25 03:36:57;;;;;;;31.65;13.55;;;;;;;0.82;nan;94803.19;6125212;23;20021;-80
2021/12/25 03:39:22;;;;;;;34.47;14.60;;;;;;;1.39;nan;94918.50;6123648;23;20045;-80
2021/12/25 03:41:48;;;;;;;31.75;14.18;;;;;;;1.47;nan;94952.16;6098649;23;20006;-79
2021/12/25 03:44:13;;;;;;;35.83;14.13;;;;;;;1.05;nan;94850.28;6098334;23;20006;-79
2021/12/25 03:46:40;;;;;;;28.98;14.32;;;;;;;1.05;nan;94862.53;6122766;23;20079;-80
2021/12/25 03:49:13;;;;;;;36.08;14.43;;;;;;;1.00;nan;94854.53;6097224;23;20010;-79
2021/12/25 04:00:00;;;;;;;24.42;12.18;;;;;;;1.71;nan;94901.56;6125459;23;20017;-79
2021/12/25 04:02:34;;;;;;;29.88;13.18;;;;;;;1.77;nan;94923.38;6123958;23;20068;-80
2021/12/25 04:05:02;;;;;;;25.85;13.25;;;;;;;1.39;nan;94889.75;6124122;23;20022;-79
2021/12/25 04:07:59;;;;;;;28.02;13.23;;;;;;;1.49;nan;94932.63;6099178;23;20005;-80
2021/12/25 04:10:25;;;;;;;26.08;13.40;;;;;;;1.35;nan;94918.16;6098931;23;20010;-80
2021/12/25 04:12:51;;;;;;;30.20;13.35;;;;;;;1.60;nan;94918.03;6099172;23;20014;-80
2021/12/25 04:15:16;;;;;;;28.55;13.85;;;;;;;0.77;nan;94788.19;6124540;23;20006;-79
2021/12/25 04:17:42;;;;;;;29.05;13.38;;;;;;;1.30;nan;94917.25;6125171;23;20006;-80
2021/12/25 04:20:08;;;;;;;30.75;14.73;;;;;;;0.83;nan;94840.53;6125510;23;20013;-80
2021/12/25 04:22:44;;;;;;;25.48;13.55;;;;;;;1.60;nan;94925.06;6124782;23;20450;-79
2021/12/25 04:25:10;;;;;;;35.25;12.85;;;;;;;1.35;nan;94886.81;6098708;23;20312;-80
2021/12/25 04:27:37;;;;;;;31.70;12.93;;;;;;;1.07;nan;94879.56;6125261;23;20087;-82
2021/12/25 04:30:16;;;;;;;28.13;13.27;;;;;;;1.26;nan;94906.44;6099359;23;20085;-80
2021/12/25 04:33:18;;;;;;;30.17;12.60;;;;;;;1.48;nan;94923.19;6121713;23;20144;-80
2021/12/25 05:05:33;;;;;;;24.75;14.43;;;;;;;2.15;nan;94991.78;6124376;23;20037;-79
2021/12/25 05:07:58;;;;;;;32.67;15.13;;;;;;;1.99;nan;94996.88;6097880;23;20485;-80
2021/12/25 05:10:24;;;;;;;28.85;13.70;;;;;;;1.31;nan;94898.72;6124080;23;20002;-80
2021/12/25 05:12:49;;;;;;;26.27;13.45;;;;;;;1.55;nan;94944.81;6122663;23;20087;-80
2021/12/25 05:15:15;;;;;;;27.05;13.45;;;;;;;1.80;nan;94968.19;6122001;23;20017;-79
2021/12/25 05:17:41;;;;;;;27.00;13.07;;;;;;;1.37;nan;94897.06;6124956;23;20506;-79
2021/12/25 05:20:07;;;;;;;27.60;13.38;;;;;;;1.74;nan;94945.56;6124343;23;20013;-79
2021/12/25 05:22:32;;;;;;;28.52;14.25;;;;;;;1.14;nan;94853.38;6124249;23;20033;-79
2021/12/25 05:24:57;;;;;;;25.48;13.57;;;;;;;2.15;nan;94988.38;6124036;23;20446;-79
2021/12/25 05:27:23;;;;;;;29.10;14.32;;;;;;;2.23;nan;94995.88;6124512;23;20319;-80
2021/12/25 05:29:48;;;;;;;27.58;13.35;;;;;;;1.79;nan;94927.38;6098754;23;20060;-80
2021/12/25 05:32:16;;;;;;;33.25;13.73;;;;;;;1.36;nan;94857.06;6123267;23;20437;-80
2021/12/25 05:34:41;;;;;;;24.63;14.05;;;;;;;1.75;nan;94938.50;6098945;23;20006;-80
2021/12/25 05:37:07;;;;;;;27.08;12.77;;;;;;;2.24;nan;95008.75;6122601;23;20020;-80
2021/12/25 05:39:33;;;;;;;24.95;12.55;;;;;;;2.13;nan;94999.09;6125051;23;20481;-80
2021/12/25 05:41:59;;;;;;;27.30;12.98;;;;;;;2.00;nan;94961.84;6124179;23;20014;-80
2021/12/25 05:44:25;;;;;;;26.42;12.80;;;;;;;2.45;nan;95011.84;6124635;23;20461;-80
2021/12/25 05:46:51;;;;;;;23.42;13.30;;;;;;;2.42;nan;95013.09;6124618;23;20385;-80
2021/12/25 05:49:16;;;;;;;24.40;12.43;;;;;;;2.13;nan;94964.28;6124759;23;20033;-80
2021/12/25 05:51:42;;;;;;;28.42;13.45;;;;;;;2.04;nan;94963.81;6123727;23;20291;-80
2021/12/25 05:54:07;;;;;;;27.42;12.77;;;;;;;2.07;nan;94963.34;6123551;23;20030;-80
2021/12/25 05:56:32;;;;;;;28.15;13.38;;;;;;;2.39;nan;95024.00;6096949;23;20092;-79
2021/12/25 05:58:58;;;;;;;23.90;12.02;;;;;;;1.75;nan;94956.81;6123139;23;20037;-79
2021/12/25 06:01:25;;;;;;;27.30;13.25;;;;;;;1.77;nan;94939.06;6123882;23;20527;-79
2021/12/25 06:03:50;;;;;;;27.42;12.38;;;;;;;2.04;nan;94963.81;6123552;23;20036;-80
2021/12/25 06:06:16;;;;;;;24.50;12.35;;;;;;;1.63;nan;94917.56;6124467;23;20010;-80
2021/12/25 06:08:41;;;;;;;27.42;12.80;;;;;;;2.23;nan;94999.31;6122022;23;20005;-80
2021/12/25 06:11:07;;;;;;;29.90;12.88;;;;;;;2.05;nan;94954.13;6096867;23;20425;-79
2021/12/25 06:13:37;;;;;;;29.08;13.00;;;;;;;1.87;nan;94931.47;6123167;23;20006;-79
2021/12/25 06:16:03;;;;;;;22.10;12.00;;;;;;;2.38;nan;95024.22;6097283;23;20014;-79
2021/12/25 06:18:28;;;;;;;25.88;12.88;;;;;;;2.00;nan;94965.25;6124717;23;20006;-80
2021/12/25 06:20:54;;;;;;;21.63;12.00;;;;;;;2.12;nan;94970.53;6123098;23;20018;-80
2021/12/25 06:23:19;;;;;;;25.52;12.60;;;;;;;2.27;nan;95016.16;6123638;23;20624;-79
2021/12/25 06:25:45;;;;;;;24.70;12.85;;;;;;;1.75;nan;94915.78;6097334;23;20326;-79
2021/12/25 06:28:10;;;;;;;25.15;11.95;;;;;;;2.00;nan;94948.75;6124688;23;20010;-79
2021/12/25 06:30:38;;;;;;;25.45;12.25;;;;;;;2.29;nan;94984.50;6098176;23;20012;-79
2021/12/25 06:33:04;;;;;;;26.05;11.90;;;;;;;2.03;nan;94924.78;6098296;23;20434;-80
2021/12/25 06:35:31;;;;;;;28.55;12.52;;;;;;;2.41;nan;94987.94;6097565;23;20141;-81
2021/12/25 06:37:56;;;;;;;30.73;12.80;;;;;;;2.70;nan;95044.63;6123811;23;20096;-80
2021/12/25 06:40:22;;;;;;;25.02;12.00;;;;;;;2.26;nan;94969.28;6099711;23;20006;-80
2021/12/25 06:42:48;;;;;;;29.77;12.65;;;;;;;2.12;nan;94942.53;6126086;23;20017;-80
2021/12/25 06:45:14;;;;;;;26.10;12.43;;;;;;;2.48;nan;95011.41;6123671;23;20036;-80
2021/12/25 06:47:40;;;;;;;26.80;12.50;;;;;;;2.41;nan;95000.25;6099520;23;20017;-79
2021/12/25 06:50:08;;;;;;;24.75;13.60;;;;;;;2.68;nan;95056.34;6125397;23;20212;-80
2021/12/25 06:52:34;;;;;;;26.92;13.68;;;;;;;1.74;nan;94937.72;6125562;23;20016;-80
2021/12/25 06:55:00;;;;;;;25.65;12.85;;;;;;;2.15;nan;94981.31;6099545;23;20189;-80
2021/12/25 06:57:28;;;;;;;29.67;13.38;;;;;;;2.00;nan;94928.63;6125968;23;20017;-79
2021/12/25 06:59:53;;;;;;;30.35;14.27;;;;;;;2.32;nan;94971.00;6126488;23;20010;-80
2021/12/25 07:02:19;;;;;;;34.67;14.32;;;;;;;2.33;nan;94975.19;6126330;23;20517;-80
2021/12/25 07:04:44;;;;;;;35.60;14.50;;;;;;;2.40;nan;95025.63;6124034;23;20116;-79
2021/12/25 07:07:10;;;;;;;27.98;13.50;;;;;;;2.38;nan;95032.88;6125988;23;20085;-79
2021/12/25 07:09:36;;;;;;;30.30;14.82;;;;;;;2.65;nan;95069.91;6125762;23;20387;-80
2021/12/25 07:12:01;;;;;;;34.35;15.55;;;;;;;2.76;nan;95078.78;6125856;23;20018;-80
2021/12/25 07:14:27;;;;;;;29.65;14.98;;;;;;;2.17;nan;94970.63;6123522;23;20040;-79
2021/12/25 07:16:52;;;;;;;30.02;16.10;;;;;;;2.56;nan;95022.31;6099848;23;20018;-79
2021/12/25 07:19:18;;;;;;;36.97;14.93;;;;;;;2.92;nan;95055.34;6125638;23;20092;-79
2021/12/25 07:21:43;;;;;;;34.88;15.43;;;;;;;2.38;nan;94995.44;6125976;23;20022;-79
2021/12/25 07:24:11;;;;;;;30.75;15.75;;;;;;;3.02;nan;95065.25;6126621;23;20021;-79
2021/12/25 07:26:38;;;;;;;40.92;20.42;;;;;;;3.00;nan;95064.69;6123728;23;20431;-80
2021/12/25 07:29:04;;;;;;;40.63;19.35;;;;;;;3.04;nan;95073.69;6126427;23;20006;-80
2021/12/25 07:31:30;;;;;;;34.55;17.20;;;;;;;2.87;nan;95026.44;6130919;23;20266;-79
2021/12/25 07:33:55;;;;;;;37.60;19.08;;;;;;;2.77;nan;95018.34;6099778;23;20422;-79
2021/12/25 07:36:21;;;;;;;55.15;22.05;;;;;;;3.00;nan;95031.41;6099209;23;20433;-79
2021/12/25 07:38:46;;;;;;;46.05;20.60;;;;;;;2.55;nan;94952.66;6124135;23;20101;-80
2021/12/25 07:41:12;;;;;;;72.78;28.58;;;;;;;3.38;nan;95080.69;6126928;23;20076;-80
2021/12/25 07:43:38;;;;;;;78.70;29.65;;;;;;;3.49;nan;95100.88;6126571;23;20426;-80
2021/12/25 07:46:03;;;;;;;77.82;31.30;;;;;;;2.56;nan;94974.41;6098844;23;20018;-79
2021/12/25 07:48:29;;;;;;;55.35;23.60;;;;;;;3.18;nan;95067.19;6097990;23;20010;-80
2021/12/25 07:50:55;;;;;;;47.30;20.90;;;;;;;3.48;nan;95098.47;6124587;23;20016;-79
2021/12/25 07:53:21;;;;;;;46.17;21.13;;;;;;;2.59;nan;94947.78;6125074;23;20033;-79
2021/12/25 07:55:48;;;;;;;41.35;19.23;;;;;;;3.54;nan;95096.75;6125015;23;20013;-80
2021/12/25 07:58:14;;;;;;;38.15;19.00;;;;;;;3.59;nan;95088.97;6123494;23;20044;-80
2021/12/25 08:00:41;;;;;;;40.60;18.23;;;;;;;3.57;nan;95089.22;6124816;23;20135;-80
2021/12/25 08:03:07;;;;;;;39.88;18.70;;;;;;;3.32;nan;95059.84;6123792;23;20010;-80
2021/12/25 08:05:33;;;;;;;37.70;18.77;;;;;;;3.03;nan;94990.88;6098933;23;20016;-80
2021/12/25 08:07:59;;;;;;;38.97;17.80;;;;;;;2.97;nan;95010.13;6124054;23;20080;-79
2021/12/25 08:10:25;;;;;;;29.63;13.80;;;;;;;3.31;nan;95043.34;6124516;23;20005;-79
2021/12/25 08:12:52;;;;;;;26.38;13.00;;;;;;;3.28;nan;95029.91;6124928;23;20371;-79
2021/12/25 08:15:22;;;;;;;28.38;13.68;;;;;;;3.03;nan;94975.94;6097237;23;20017;-79
2021/12/25 08:17:48;;;;;;;35.58;16.27;;;;;;;3.08;nan;94962.16;6124548;23;20457;-80
2021/12/25 08:20:15;;;;;;;37.20;16.35;;;;;;;3.95;nan;95104.41;6122019;23;20041;-79
2021/12/25 08:22:41;;;;;;;39.28;16.65;;;;;;;3.97;nan;95097.06;6124440;23;20354;-80
2021/12/25 08:25:08;;;;;;;46.47;18.70;;;;;;;2.69;nan;94877.28;6124217;23;20010;-80
2021/12/25 08:27:34;;;;;;;33.80;12.55;;;;;;;3.95;nan;95059.00;6098550;23;20013;-80
2021/12/25 08:30:00;;;;;;;27.40;12.00;;;;;;;3.65;nan;95033.00;6097262;23;20017;-80
2021/12/25 08:32:26;;;;;;;24.38;10.68;;;;;;;3.59;nan;95005.84;6123712;23;20010;-80
2021/12/25 08:34:52;;;;;;;24.45;11.30;;;;;;;3.99;nan;95058.28;6124149;23;20006;-80
2021/12/25 08:37:22;;;;;;;25.00;10.80;;;;;;;3.95;nan;95046.66;6121751;23;20021;-79
2021/12/25 08:39:48;;;;;;;22.20;10.73;;;;;;;3.68;nan;95003.66;6122787;23;20006;-80
2021/12/25 08:42:14;;;;;;;24.67;10.75;;;;;;;3.40;nan;94931.06;6124228;23;20006;-80
2021/12/25 08:44:52;;;;;;;29.23;11.18;;;;;;;4.02;nan;95007.97;6097204;23;20144;-80
2021/12/25 08:47:17;;;;;;;20.10;9.90;;;;;;;3.87;nan;94973.59;6121919;23;20040;-79
2021/12/25 08:49:43;;;;;;;23.45;10.10;;;;;;;3.62;nan;94942.47;6123174;23;20002;-80
2021/12/25 08:52:15;;;;;;;21.63;11.07;;;;;;;3.89;nan;94953.16;6123081;23;20006;-80
2021/12/25 08:54:42;;;;;;;23.80;10.82;;;;;;;3.76;nan;94938.50;6123290;23;20095;-80
2021/12/25 08:57:09;;;;;;;20.80;10.20;;;;;;;4.78;nan;95074.03;6096982;23;20037;-79
2021/12/25 08:59:36;;;;;;;22.85;10.50;;;;;;;4.76;nan;95057.72;6122076;23;20006;-79
2021/12/25 09:02:06;;;;;;;22.60;10.57;;;;;;;4.91;nan;95063.19;6121979;23;20072;-79
2021/12/25 09:04:32;;;;;;;25.58;10.57;;;;;;;4.38;nan;94995.41;6097179;23;20343;-79
2021/12/25 09:06:58;;;;;;;28.48;11.18;;;;;;;5.02;nan;95063.13;6097444;23;20059;-80
2021/12/25 09:09:24;;;;;;;29.52;10.95;;;;;;;5.02;nan;95064.97;6123099;23;20123;-79
2021/12/25 09:11:49;;;;;;;21.42;8.90;;;;;;;4.50;nan;94964.63;6097375;23;19998;-79
2021/12/25 09:14:15;;;;;;;22.40;8.95;;;;;;;4.86;nan;94993.00;6097549;23;20002;-79
2021/12/25 09:16:41;;;;;;;25.10;10.77;;;;;;;5.15;nan;95027.81;6097619;23;20014;-78
2021/12/25 09:19:06;;;;;;;32.38;13.50;;;;;;;4.74;nan;94947.63;6096872;23;20017;-80
2021/12/25 09:21:32;;;;;;;28.38;10.70;;;;;;;5.46;nan;95036.06;6123506;23;20022;-79
2021/12/25 09:23:58;;;;;;;20.60;9.77;;;;;;;5.62;nan;95043.91;6124006;23;20104;-79
2021/12/25 09:26:24;;;;;;;21.13;9.60;;;;;;;5.68;nan;95035.03;6123996;23;20002;-79
2021/12/25 09:28:50;;;;;;;18.40;9.23;;;;;;;4.96;nan;94895.88;6098196;23;20172;-79
2021/12/25 09:31:16;;;;;;;18.83;9.65;;;;;;;5.18;nan;94945.84;6123691;23;20013;-79
2021/12/25 09:33:42;;;;;;;26.48;10.88;;;;;;;5.47;nan;94979.81;6123922;23;20032;-80
2021/12/25 09:36:08;;;;;;;25.90;10.55;;;;;;;5.62;nan;94980.78;6122123;23;20152;-80
2021/12/25 09:38:34;;;;;;;35.08;10.35;;;;;;;5.10;nan;94904.19;6097854;23;20362;-80
2021/12/25 09:41:02;;;;;;;31.63;11.38;;;;;;;5.76;nan;94986.44;6122246;23;20181;-80
2021/12/25 09:43:28;;;;;;;24.70;11.27;;;;;;;5.50;nan;94930.13;6123872;23;20005;-80
2021/12/25 09:45:54;;;;;;;46.42;14.48;;;;;;;5.23;nan;94898.56;6098068;23;19998;-80
2021/12/25 09:48:20;;;;;;;41.83;17.17;;;;;;;5.91;nan;94973.47;6097577;23;20021;-80
2021/12/25 09:50:46;;;;;;;38.08;16.42;;;;;;;5.81;nan;94963.59;6125312;23;20029;-80
2021/12/25 09:53:13;;;;;;;51.22;17.83;;;;;;;5.80;nan;94929.63;6125445;23;20010;-81
2021/12/25 09:55:40;;;;;;;51.88;18.20;;;;;;;6.50;nan;95005.84;6099178;23;20589;-80
2021/12/25 09:58:07;;;;;;;46.88;19.42;;;;;;;6.24;nan;94940.84;6100150;23;20323;-80
2021/12/25 10:00:36;;;;;;;40.10;17.35;;;;;;;5.83;nan;94869.41;6135664;23;20010;-80
2021/12/25 10:03:02;;;;;;;41.95;18.30;;;;;;;6.59;nan;94995.63;6126184;23;20037;-80
2021/12/25 10:05:31;;;;;;;47.45;18.20;;;;;;;6.47;nan;94973.94;6098683;23;20014;-80
2021/12/25 10:08:04;;;;;;;48.85;18.63;;;;;;;6.19;nan;94920.50;6098918;23;20021;-80
2021/12/25 10:10:42;;;;;;;49.92;23.15;;;;;;;6.25;nan;94945.06;6126010;23;20010;-80
2021/12/25 10:13:23;;;;;;;70.15;34.20;;;;;;;5.93;nan;94916.09;6125018;23;20096;-80
2021/12/25 10:15:51;;;;;;;66.60;31.88;;;;;;;6.40;nan;94981.25;6123881;23;20073;-80
2021/12/25 10:18:28;;;;;;;64.75;32.13;;;;;;;5.91;nan;94862.91;6126647;23;20069;-80
2021/12/25 10:20:54;;;;;;;72.88;32.78;;;;;;;6.76;nan;94895.34;6127803;23;20021;-81
2021/12/25 10:23:28;;;;;;;64.53;30.33;;;;;;;7.49;nan;94978.72;6128090;23;20020;-80
2021/12/25 10:25:57;;;;;;;62.58;29.45;;;;;;;7.91;nan;94980.44;6128145;23;20276;-81
2021/12/25 10:28:29;;;;;;;56.42;26.88;;;;;;;7.16;nan;94840.13;6102602;23;20069;-80
2021/12/25 10:30:59;;;;;;;50.50;25.15;;;;;;;7.97;nan;94900.94;6126244;23;20008;-81
2021/12/25 10:33:35;;;;;;;48.05;24.00;;;;;;;8.63;nan;94939.78;6102345;23;20072;-81
2021/12/25 10:36:24;;;;;;;48.20;22.63;;;;;;;8.51;nan;94866.88;6125379;23;20014;-80
2021/12/25 10:39:00;;;;;;;52.63;24.80;;;;;;;9.80;nan;94954.22;6100734;23;20016;-80
2021/12/25 10:41:25;;;;;;;46.90;23.90;;;;;;;9.59;nan;94910.38;6126761;23;20009;-81
2021/12/25 10:44:08;;;;;;;48.28;25.25;;;;;;;10.41;nan;94959.94;6129062;23;20013;-81
2021/12/25 10:46:54;;;;;;;54.13;25.63;;;;;;;9.43;nan;94756.16;6124776;23;20057;-80
2021/12/25 10:49:26;;;;;;;69.88;26.67;;;;;;;10.54;nan;94931.19;6126492;23;20045;-81
2021/12/25 10:51:52;;;;;;;50.13;23.42;;;;;;;10.10;nan;94870.28;6128502;23;20002;-81
2021/12/25 10:54:18;;;;;;;39.35;21.90;;;;;;;10.41;nan;94909.56;6102227;23;20156;-81
2021/12/25 10:56:47;;;;;;;56.83;24.70;;;;;;;9.76;nan;94783.69;6126381;23;20458;-81
2021/12/25 10:59:16;;;;;;;49.35;23.55;;;;;;;10.40;nan;94875.38;6124252;23;20432;-81
2021/12/25 11:01:48;;;;;;;53.17;26.67;;;;;;;10.50;nan;94862.03;6124248;23;20012;-80
2021/12/25 11:04:36;;;;;;;46.70;24.50;;;;;;;10.29;nan;94864.09;6100229;23;20010;-80
2021/12/25 11:07:16;;;;;;;52.70;25.05;;;;;;;10.29;nan;94930.34;6098607;23;20264;-80
2021/12/25 11:10:09;;;;;;;42.45;22.15;;;;;;;9.89;nan;94841.31;6124202;23;20021;-80
2021/12/25 11:12:36;;;;;;;44.75;24.55;;;;;;;10.15;nan;94916.09;6123874;23;20081;-81
2021/12/25 11:15:09;;;;;;;45.38;22.65;;;;;;;9.88;nan;94926.34;6126450;23;20076;-80
2021/12/25 11:17:39;;;;;;;42.30;22.88;;;;;;;9.16;nan;94801.56;6126077;23;20006;-80
2021/12/25 11:20:05;;;;;;;40.08;21.70;;;;;;;8.94;nan;94816.22;6098628;23;20315;-80
2021/12/25 11:22:46;;;;;;;47.58;23.48;;;;;;;9.24;nan;94868.97;6125231;23;20049;-80
2021/12/25 11:25:12;;;;;;;53.53;23.50;;;;;;;9.09;nan;94840.75;6099350;23;20029;-80
2021/12/25 11:27:38;;;;;;;50.22;23.23;;;;;;;9.29;nan;94856.53;6098835;23;20002;-80
2021/12/25 11:30:05;;;;;;;43.55;22.08;;;;;;;9.24;nan;94821.34;6124929;23;20153;-79
2021/12/25 11:32:31;;;;;;;54.67;23.88;;;;;;;9.10;nan;94780.69;6124693;23;20016;-79
2021/12/25 11:35:00;;;;;;;41.85;20.60;;;;;;;9.53;nan;94848.72;6123452;23;20089;-80
2021/12/25 11:37:27;;;;;;;37.53;18.52;;;;;;;9.81;nan;94844.56;6099123;23;20056;-80
2021/12/25 11:39:54;;;;;;;38.35;18.35;;;;;;;10.13;nan;94881.16;6123907;23;20379;-80
2021/12/25 11:42:22;;;;;;;39.97;18.55;;;;;;;10.18;nan;94880.34;6123009;23;20006;-79
2021/12/25 11:44:52;;;;;;;28.58;12.20;;;;;;;10.11;nan;94872.69;6123915;23;20021;-79
2021/12/25 11:47:30;;;;;;;25.80;12.57;;;;;;;10.09;nan;94861.56;6099198;23;20022;-80
2021/12/25 11:49:59;;;;;;;25.63;11.65;;;;;;;10.19;nan;94860.72;6123937;23;20014;-80
2021/12/25 11:52:30;;;;;;;21.13;11.30;;;;;;;9.98;nan;94813.19;6124492;23;20061;-80
2021/12/25 11:55:25;;;;;;;24.38;11.75;;;;;;;10.28;nan;94837.84;6124095;23;20006;-80
2021/12/25 11:58:00;;;;;;;26.75;10.70;;;;;;;10.08;nan;94807.78;6123696;23;20014;-80
2021/12/25 12:00:50;;;;;;;18.92;9.55;;;;;;;10.36;nan;94853.94;6125450;23;20006;-80
2021/12/25 12:03:37;;;;;;;22.88;10.60;;;;;;;10.18;nan;94864.44;6123823;23;20044;-80
2021/12/25 12:06:03;;;;;;;20.40;9.63;;;;;;;9.95;nan;94820.88;6098849;23;20017;-80
2021/12/25 12:08:28;;;;;;;19.48;9.70;;;;;;;10.06;nan;94841.72;6099484;23;20064;-80
2021/12/25 12:10:57;;;;;;;21.17;9.60;;;;;;;9.70;nan;94811.25;6100430;23;20374;-80
2021/12/25 12:13:26;;;;;;;21.95;9.30;;;;;;;10.04;nan;94856.31;6126316;23;20016;-79
2021/12/25 12:16:04;;;;;;;19.48;9.07;;;;;;;9.79;nan;94817.56;6124549;23;20010;-80
2021/12/25 12:18:36;;;;;;;22.48;9.52;;;;;;;9.40;nan;94742.66;6126438;23;20330;-80
2021/12/25 12:21:33;;;;;;;24.60;9.02;;;;;;;9.86;nan;94796.84;6098407;23;20029;-79
2021/12/25 12:27:02;;;;;;;18.65;9.88;;;;;;;9.12;nan;94662.97;6129605;23;20037;-79
2021/12/25 12:29:39;;;;;;;25.80;9.35;;;;;;;10.40;nan;94857.59;6130227;23;20044;-80
2021/12/25 12:32:06;;;;;;;22.42;9.48;;;;;;;10.71;nan;94857.28;6123595;23;20017;-80
2021/12/25 12:34:36;;;;;;;20.20;8.60;;;;;;;10.51;nan;94823.03;6123980;23;20010;-79
2021/12/25 12:37:25;;;;;;;21.77;8.52;;;;;;;10.79;nan;94865.44;6097805;23;20097;-81
2021/12/25 12:39:54;;;;;;;16.27;7.68;;;;;;;10.83;nan;94871.75;6098566;23;20018;-81
2021/12/25 12:42:21;;;;;;;18.27;7.55;;;;;;;10.28;nan;94790.94;6122854;23;20010;-80
2021/12/25 12:44:53;;;;;;;19.52;7.22;;;;;;;10.53;nan;94834.16;6125458;23;20014;-80
2021/12/25 12:47:19;;;;;;;20.55;8.40;;;;;;;10.72;nan;94872.16;6099417;23;20017;-80
2021/12/25 12:49:50;;;;;;;21.95;8.18;;;;;;;10.61;nan;94868.00;6122746;23;20010;-80
2021/12/25 12:52:29;;;;;;;19.55;8.20;;;;;;;10.46;nan;94850.38;6125608;23;20028;-80
2021/12/25 12:54:58;;;;;;;17.17;8.07;;;;;;;9.90;nan;94755.50;6124548;23;20044;-81
2021/12/25 12:57:29;;;;;;;24.67;8.68;;;;;;;10.55;nan;94866.47;6125359;23;20070;-80
2021/12/25 13:00:22;;;;;;;21.48;8.65;;;;;;;9.43;nan;94720.94;6126357;23;20006;-80
2021/12/25 13:02:55;;;;;;;28.85;9.43;;;;;;;9.93;nan;94804.47;6124537;23;20021;-80
2021/12/25 13:05:24;;;;;;;30.33;10.43;;;;;;;10.25;nan;94868.34;6126323;23;20017;-80